sensor_id;sensor_type;location;lat;lon;timestamp;temperature;humidity
47090;DHT22;32840;52.516;13.294;2022-11-15T00:00:15;8.20;99.90
47090;DHT22;32840;52.516;13.294;2022-11-15T00:03:00;8.20;99.90
47090;DHT22;32840;52.516;13.294;2022-11-15T00:05:45;8.20;99.90
47090;DHT22;32840;52.516;13.294;2022-11-15T00:08:32;8.20;99.90
47090;DHT22;32840;52.516;13.294;2022-11-15T00:11:17;8.20;99.90
47090;DHT22;32840;52.516;13.294;2022-11-15T00:14:02;8.10;99.90
47090;DHT22;32840;52.516;13.294;2022-11-15T00:16:47;8.10;99.90
47090;DHT22;32840;52.516;13.294;2022-11-15T00:19:32;8.10;99.90
47090;DHT22;32840;52.516;13.294;2022-11-15T00:22:17;8.10;99.90
47090;DHT22;32840;52.516;13.294;2022-11-15T00:25:02;8.10;99.90
47090;DHT22;32840;52.516;13.294;2022-11-15T00:27:48;8.10;99.90
47090;DHT22;32840;52.516;13.294;2022-11-15T00:30:32;8.10;99.90
47090;DHT22;32840;52.516;13.294;2022-11-15T00:33:17;8.10;99.90
47090;DHT22;32840;52.516;13.294;2022-11-15T00:36:04;8.10;99.90
47090;DHT22;32840;52.516;13.294;2022-11-15T00:38:49;8.10;99.90
47090;DHT22;32840;52.516;13.294;2022-11-15T00:41:34;8.10;99.90
47090;DHT22;32840;52.516;13.294;2022-11-15T00:44:19;8.00;99.90
47090;DHT22;32840;52.516;13.294;2022-11-15T00:47:04;8.10;99.90
47090;DHT22;32840;52.516;13.294;2022-11-15T00:49:49;8.10;99.90
47090;DHT22;32840;52.516;13.294;2022-11-15T00:52:34;8.00;99.90
47090;DHT22;32840;52.516;13.294;2022-11-15T00:55:19;8.00;99.90
47090;DHT22;32840;52.516;13.294;2022-11-15T00:58:04;8.10;99.90
47090;DHT22;32840;52.516;13.294;2022-11-15T01:00:49;8.00;99.90
47090;DHT22;32840;52.516;13.294;2022-11-15T01:03:34;8.00;99.90
47090;DHT22;32840;52.516;13.294;2022-11-15T01:06:19;8.10;99.90
47090;DHT22;32840;52.516;13.294;2022-11-15T01:09:04;8.10;99.90
47090;DHT22;32840;52.516;13.294;2022-11-15T01:11:49;8.00;99.90
47090;DHT22;32840;52.516;13.294;2022-11-15T01:14:34;8.00;99.90
47090;DHT22;32840;52.516;13.294;2022-11-15T01:17:19;8.00;99.90
47090;DHT22;32840;52.516;13.294;2022-11-15T01:20:04;8.00;99.90
47090;DHT22;32840;52.516;13.294;2022-11-15T01:22:49;8.10;99.90
47090;DHT22;32840;52.516;13.294;2022-11-15T01:25:34;8.00;99.90
47090;DHT22;32840;52.516;13.294;2022-11-15T01:28:19;8.00;99.90
47090;DHT22;32840;52.516;13.294;2022-11-15T01:31:07;7.90;99.90
47090;DHT22;32840;52.516;13.294;2022-11-15T01:33:52;7.90;99.90
47090;DHT22;32840;52.516;13.294;2022-11-15T01:36:37;8.00;99.90
47090;DHT22;32840;52.516;13.294;2022-11-15T01:39:22;8.00;99.90
47090;DHT22;32840;52.516;13.294;2022-11-15T01:42:12;8.00;99.90
47090;DHT22;32840;52.516;13.294;2022-11-15T01:44:57;7.90;99.90
47090;DHT22;32840;52.516;13.294;2022-11-15T01:47:46;7.90;99.90
47090;DHT22;32840;52.516;13.294;2022-11-15T01:50:33;7.90;99.90
47090;DHT22;32840;52.516;13.294;2022-11-15T01:53:19;7.80;99.90
47090;DHT22;32840;52.516;13.294;2022-11-15T01:56:15;7.90;99.90
47090;DHT22;32840;52.516;13.294;2022-11-15T01:59:03;7.80;99.90
47090;DHT22;32840;52.516;13.294;2022-11-15T02:01:49;7.90;99.90
47090;DHT22;32840;52.516;13.294;2022-11-15T02:04:41;7.80;99.90
47090;DHT22;32840;52.516;13.294;2022-11-15T02:07:28;7.80;99.90
47090;DHT22;32840;52.516;13.294;2022-11-15T02:10:19;7.80;99.90
47090;DHT22;32840;52.516;13.294;2022-11-15T02:13:04;7.80;99.90
47090;DHT22;32840;52.516;13.294;2022-11-15T02:16:10;7.90;99.90
47090;DHT22;32840;52.516;13.294;2022-11-15T02:29:03;7.80;99.90
47090;DHT22;32840;52.516;13.294;2022-11-15T02:31:59;7.80;99.90
47090;DHT22;32840;52.516;13.294;2022-11-15T02:35:22;7.80;99.90
47090;DHT22;32840;52.516;13.294;2022-11-15T02:41:09;7.80;99.90
47090;DHT22;32840;52.516;13.294;2022-11-15T02:47:02;7.80;99.90
47090;DHT22;32840;52.516;13.294;2022-11-15T02:50:01;7.80;99.90
47090;DHT22;32840;52.516;13.294;2022-11-15T02:52:48;7.80;99.90
47090;DHT22;32840;52.516;13.294;2022-11-15T02:58:28;7.80;99.90
47090;DHT22;32840;52.516;13.294;2022-11-15T03:11:12;7.70;99.90
47090;DHT22;32840;52.516;13.294;2022-11-15T03:17:26;7.70;99.90
47090;DHT22;32840;52.516;13.294;2022-11-15T03:20:13;7.70;99.90
47090;DHT22;32840;52.516;13.294;2022-11-15T03:23:10;7.70;99.90
47090;DHT22;32840;52.516;13.294;2022-11-15T03:25:55;7.70;99.90
47090;DHT22;32840;52.516;13.294;2022-11-15T03:29:03;7.70;99.90
47090;DHT22;32840;52.516;13.294;2022-11-15T03:31:56;7.70;99.90
47090;DHT22;32840;52.516;13.294;2022-11-15T03:37:46;7.70;99.90
47090;DHT22;32840;52.516;13.294;2022-11-15T03:40:39;7.70;99.90
47090;DHT22;32840;52.516;13.294;2022-11-15T03:44:10;7.70;99.90
47090;DHT22;32840;52.516;13.294;2022-11-15T03:46:57;7.70;99.90
47090;DHT22;32840;52.516;13.294;2022-11-15T03:49:50;7.70;99.90
47090;DHT22;32840;52.516;13.294;2022-11-15T03:52:37;7.70;99.90
47090;DHT22;32840;52.516;13.294;2022-11-15T03:55:22;7.70;99.90
47090;DHT22;32840;52.516;13.294;2022-11-15T03:58:07;7.70;99.90
47090;DHT22;32840;52.516;13.294;2022-11-15T04:00:52;7.70;99.90
47090;DHT22;32840;52.516;13.294;2022-11-15T04:03:36;7.70;99.90
47090;DHT22;32840;52.516;13.294;2022-11-15T04:06:21;7.70;99.90
47090;DHT22;32840;52.516;13.294;2022-11-15T04:09:06;7.70;99.90
47090;DHT22;32840;52.516;13.294;2022-11-15T04:11:51;7.60;99.90
47090;DHT22;32840;52.516;13.294;2022-11-15T04:14:36;7.60;99.90
47090;DHT22;32840;52.516;13.294;2022-11-15T04:17:21;7.60;99.90
47090;DHT22;32840;52.516;13.294;2022-11-15T04:20:15;7.60;99.90
47090;DHT22;32840;52.516;13.294;2022-11-15T04:23:21;7.60;99.90
47090;DHT22;32840;52.516;13.294;2022-11-15T04:26:25;7.70;99.90
47090;DHT22;32840;52.516;13.294;2022-11-15T04:29:10;7.60;99.90
47090;DHT22;32840;52.516;13.294;2022-11-15T04:32:18;7.60;99.90
47090;DHT22;32840;52.516;13.294;2022-11-15T04:35:03;7.70;99.90
47090;DHT22;32840;52.516;13.294;2022-11-15T04:37:48;7.70;99.90
47090;DHT22;32840;52.516;13.294;2022-11-15T04:40:33;7.70;99.90
47090;DHT22;32840;52.516;13.294;2022-11-15T04:43:18;7.60;99.90
47090;DHT22;32840;52.516;13.294;2022-11-15T04:46:03;7.60;99.90
47090;DHT22;32840;52.516;13.294;2022-11-15T04:48:48;7.60;99.90
47090;DHT22;32840;52.516;13.294;2022-11-15T04:51:33;7.60;99.90
47090;DHT22;32840;52.516;13.294;2022-11-15T04:54:18;7.60;99.90
47090;DHT22;32840;52.516;13.294;2022-11-15T04:57:03;7.60;99.90
47090;DHT22;32840;52.516;13.294;2022-11-15T04:59:47;7.60;99.90
47090;DHT22;32840;52.516;13.294;2022-11-15T05:02:32;7.60;99.90
47090;DHT22;32840;52.516;13.294;2022-11-15T05:05:36;7.60;99.90
47090;DHT22;32840;52.516;13.294;2022-11-15T05:08:21;7.60;99.90
47090;DHT22;32840;52.516;13.294;2022-11-15T05:11:06;7.60;99.90
47090;DHT22;32840;52.516;13.294;2022-11-15T05:13:50;7.60;99.90
47090;DHT22;32840;52.516;13.294;2022-11-15T05:16:36;7.60;99.90
47090;DHT22;32840;52.516;13.294;2022-11-15T05:19:20;7.60;99.90
47090;DHT22;32840;52.516;13.294;2022-11-15T05:22:05;7.60;99.90
47090;DHT22;32840;52.516;13.294;2022-11-15T05:24:50;7.60;99.90
47090;DHT22;32840;52.516;13.294;2022-11-15T05:27:35;7.60;99.90
47090;DHT22;32840;52.516;13.294;2022-11-15T05:30:20;7.60;99.90
47090;DHT22;32840;52.516;13.294;2022-11-15T05:33:05;7.60;99.90
47090;DHT22;32840;52.516;13.294;2022-11-15T05:35:56;7.60;99.90
47090;DHT22;32840;52.516;13.294;2022-11-15T05:38:42;7.60;99.90
47090;DHT22;32840;52.516;13.294;2022-11-15T05:41:32;7.60;99.90
47090;DHT22;32840;52.516;13.294;2022-11-15T05:44:21;7.60;99.90
47090;DHT22;32840;52.516;13.294;2022-11-15T05:47:08;7.50;99.90
47090;DHT22;32840;52.516;13.294;2022-11-15T05:49:55;7.60;99.90
47090;DHT22;32840;52.516;13.294;2022-11-15T05:52:41;7.60;99.90
47090;DHT22;32840;52.516;13.294;2022-11-15T05:55:26;7.60;99.90
47090;DHT22;32840;52.516;13.294;2022-11-15T05:58:11;7.60;99.90
47090;DHT22;32840;52.516;13.294;2022-11-15T06:00:56;7.60;99.90
47090;DHT22;32840;52.516;13.294;2022-11-15T06:03:41;7.60;99.90
47090;DHT22;32840;52.516;13.294;2022-11-15T06:06:28;7.60;99.90
47090;DHT22;32840;52.516;13.294;2022-11-15T06:09:12;7.70;99.90
47090;DHT22;32840;52.516;13.294;2022-11-15T06:11:57;7.70;99.90
47090;DHT22;32840;52.516;13.294;2022-11-15T06:14:42;7.70;99.90
47090;DHT22;32840;52.516;13.294;2022-11-15T06:17:28;7.70;99.90
47090;DHT22;32840;52.516;13.294;2022-11-15T06:20:13;7.70;99.90
47090;DHT22;32840;52.516;13.294;2022-11-15T06:23:03;7.70;99.90
47090;DHT22;32840;52.516;13.294;2022-11-15T06:25:48;7.70;99.90
47090;DHT22;32840;52.516;13.294;2022-11-15T06:28:33;7.70;99.90
47090;DHT22;32840;52.516;13.294;2022-11-15T06:31:18;7.70;99.90
47090;DHT22;32840;52.516;13.294;2022-11-15T06:34:03;7.70;99.90
47090;DHT22;32840;52.516;13.294;2022-11-15T06:36:48;7.70;99.90
47090;DHT22;32840;52.516;13.294;2022-11-15T06:39:33;7.70;99.90
47090;DHT22;32840;52.516;13.294;2022-11-15T06:42:18;7.60;99.90
47090;DHT22;32840;52.516;13.294;2022-11-15T06:45:03;7.70;99.90
47090;DHT22;32840;52.516;13.294;2022-11-15T06:47:48;7.70;99.90
47090;DHT22;32840;52.516;13.294;2022-11-15T06:50:33;7.70;99.90
47090;DHT22;32840;52.516;13.294;2022-11-15T06:53:18;7.70;99.90
47090;DHT22;32840;52.516;13.294;2022-11-15T06:56:05;7.70;99.90
47090;DHT22;32840;52.516;13.294;2022-11-15T06:58:50;7.70;99.90
47090;DHT22;32840;52.516;13.294;2022-11-15T07:01:35;7.80;99.90
47090;DHT22;32840;52.516;13.294;2022-11-15T07:04:20;7.80;99.90
47090;DHT22;32840;52.516;13.294;2022-11-15T07:07:05;7.80;99.90
47090;DHT22;32840;52.516;13.294;2022-11-15T07:09:50;7.80;99.90
47090;DHT22;32840;52.516;13.294;2022-11-15T07:12:35;7.80;99.90
47090;DHT22;32840;52.516;13.294;2022-11-15T07:15:23;7.80;99.90
47090;DHT22;32840;52.516;13.294;2022-11-15T07:18:08;7.80;99.90
47090;DHT22;32840;52.516;13.294;2022-11-15T07:20:53;7.80;99.90
47090;DHT22;32840;52.516;13.294;2022-11-15T07:23:39;7.80;99.90
47090;DHT22;32840;52.516;13.294;2022-11-15T07:26:24;7.70;99.90
47090;DHT22;32840;52.516;13.294;2022-11-15T07:29:09;7.70;99.90
47090;DHT22;32840;52.516;13.294;2022-11-15T07:31:54;7.70;99.90
47090;DHT22;32840;52.516;13.294;2022-11-15T07:34:39;7.70;99.90
47090;DHT22;32840;52.516;13.294;2022-11-15T07:37:24;7.80;99.90
47090;DHT22;32840;52.516;13.294;2022-11-15T07:40:10;7.80;99.90
47090;DHT22;32840;52.516;13.294;2022-11-15T07:43:02;7.90;99.90
47090;DHT22;32840;52.516;13.294;2022-11-15T07:45:47;7.90;99.90
47090;DHT22;32840;52.516;13.294;2022-11-15T07:48:32;7.90;99.90
47090;DHT22;32840;52.516;13.294;2022-11-15T07:51:17;7.90;99.90
47090;DHT22;32840;52.516;13.294;2022-11-15T07:54:03;8.00;99.90
47090;DHT22;32840;52.516;13.294;2022-11-15T07:56:48;8.00;99.90
47090;DHT22;32840;52.516;13.294;2022-11-15T07:59:33;8.00;99.90
47090;DHT22;32840;52.516;13.294;2022-11-15T08:02:19;8.00;99.90
47090;DHT22;32840;52.516;13.294;2022-11-15T08:05:04;8.00;99.90
47090;DHT22;32840;52.516;13.294;2022-11-15T08:07:49;8.10;99.90
47090;DHT22;32840;52.516;13.294;2022-11-15T08:10:34;8.10;99.90
47090;DHT22;32840;52.516;13.294;2022-11-15T08:13:19;8.20;99.90
47090;DHT22;32840;52.516;13.294;2022-11-15T08:16:05;8.20;99.90
47090;DHT22;32840;52.516;13.294;2022-11-15T08:18:50;8.20;99.90
47090;DHT22;32840;52.516;13.294;2022-11-15T08:21:35;8.20;99.90
47090;DHT22;32840;52.516;13.294;2022-11-15T08:24:22;8.30;99.90
47090;DHT22;32840;52.516;13.294;2022-11-15T08:27:06;8.30;99.90
47090;DHT22;32840;52.516;13.294;2022-11-15T08:29:59;8.30;99.90
47090;DHT22;32840;52.516;13.294;2022-11-15T08:32:44;8.30;99.90
47090;DHT22;32840;52.516;13.294;2022-11-15T08:35:29;8.40;99.90
47090;DHT22;32840;52.516;13.294;2022-11-15T08:38:14;8.40;99.90
47090;DHT22;32840;52.516;13.294;2022-11-15T08:41:04;8.50;99.90
47090;DHT22;32840;52.516;13.294;2022-11-15T08:43:49;8.50;99.90
47090;DHT22;32840;52.516;13.294;2022-11-15T08:46:33;8.50;99.90
47090;DHT22;32840;52.516;13.294;2022-11-15T08:49:19;8.60;99.90
47090;DHT22;32840;52.516;13.294;2022-11-15T08:52:04;8.60;99.90
47090;DHT22;32840;52.516;13.294;2022-11-15T08:54:49;8.60;99.90
47090;DHT22;32840;52.516;13.294;2022-11-15T08:57:34;8.70;99.90
47090;DHT22;32840;52.516;13.294;2022-11-15T09:00:18;8.70;99.90
47090;DHT22;32840;52.516;13.294;2022-11-15T09:03:05;8.90;99.90
47090;DHT22;32840;52.516;13.294;2022-11-15T09:05:55;9.00;99.90
47090;DHT22;32840;52.516;13.294;2022-11-15T09:08:40;9.10;99.90
47090;DHT22;32840;52.516;13.294;2022-11-15T09:11:26;9.20;99.90
47090;DHT22;32840;52.516;13.294;2022-11-15T09:14:11;9.30;99.90
47090;DHT22;32840;52.516;13.294;2022-11-15T09:16:57;9.40;99.90
47090;DHT22;32840;52.516;13.294;2022-11-15T09:19:42;9.40;99.90
47090;DHT22;32840;52.516;13.294;2022-11-15T09:22:27;9.40;99.90
47090;DHT22;32840;52.516;13.294;2022-11-15T09:25:13;9.40;99.90
47090;DHT22;32840;52.516;13.294;2022-11-15T09:27:58;9.50;99.90
47090;DHT22;32840;52.516;13.294;2022-11-15T09:30:42;9.50;99.90
47090;DHT22;32840;52.516;13.294;2022-11-15T09:33:28;9.50;99.90
47090;DHT22;32840;52.516;13.294;2022-11-15T09:36:12;9.50;99.90
47090;DHT22;32840;52.516;13.294;2022-11-15T09:38:58;9.60;99.90
47090;DHT22;32840;52.516;13.294;2022-11-15T09:42:17;9.60;99.90
47090;DHT22;32840;52.516;13.294;2022-11-15T09:45:12;9.70;99.90
47090;DHT22;32840;52.516;13.294;2022-11-15T09:48:27;9.70;99.90
47090;DHT22;32840;52.516;13.294;2022-11-15T09:51:38;9.80;99.90
47090;DHT22;32840;52.516;13.294;2022-11-15T09:54:37;9.90;99.90
47090;DHT22;32840;52.516;13.294;2022-11-15T10:00:48;9.90;99.90
47090;DHT22;32840;52.516;13.294;2022-11-15T10:03:38;10.00;99.90
47090;DHT22;32840;52.516;13.294;2022-11-15T10:06:27;10.10;99.90
47090;DHT22;32840;52.516;13.294;2022-11-15T10:09:36;10.10;99.90
47090;DHT22;32840;52.516;13.294;2022-11-15T10:12:22;10.20;99.90
47090;DHT22;32840;52.516;13.294;2022-11-15T10:15:14;10.20;99.90
47090;DHT22;32840;52.516;13.294;2022-11-15T10:18:42;10.30;99.90
47090;DHT22;32840;52.516;13.294;2022-11-15T10:21:55;10.30;99.90
47090;DHT22;32840;52.516;13.294;2022-11-15T10:24:45;10.40;99.90
47090;DHT22;32840;52.516;13.294;2022-11-15T10:27:30;10.40;99.90
47090;DHT22;32840;52.516;13.294;2022-11-15T10:30:17;10.40;99.90
47090;DHT22;32840;52.516;13.294;2022-11-15T10:33:27;10.40;99.90
47090;DHT22;32840;52.516;13.294;2022-11-15T10:36:18;10.40;99.90
47090;DHT22;32840;52.516;13.294;2022-11-15T10:39:03;10.50;99.90
47090;DHT22;32840;52.516;13.294;2022-11-15T10:41:49;10.50;99.90
47090;DHT22;32840;52.516;13.294;2022-11-15T10:44:42;10.60;99.90
47090;DHT22;32840;52.516;13.294;2022-11-15T10:47:29;10.60;99.90
47090;DHT22;32840;52.516;13.294;2022-11-15T10:50:31;10.70;99.90
47090;DHT22;32840;52.516;13.294;2022-11-15T10:53:44;10.80;99.90
47090;DHT22;32840;52.516;13.294;2022-11-15T10:56:29;10.80;99.90
47090;DHT22;32840;52.516;13.294;2022-11-15T10:59:28;10.90;99.90
47090;DHT22;32840;52.516;13.294;2022-11-15T11:05:38;10.90;99.90
47090;DHT22;32840;52.516;13.294;2022-11-15T11:08:24;10.90;99.90
47090;DHT22;32840;52.516;13.294;2022-11-15T11:11:09;11.00;99.90
47090;DHT22;32840;52.516;13.294;2022-11-15T11:13:54;11.00;99.90
47090;DHT22;32840;52.516;13.294;2022-11-15T11:16:49;11.10;99.90
47090;DHT22;32840;52.516;13.294;2022-11-15T11:23:14;11.10;99.90
47090;DHT22;32840;52.516;13.294;2022-11-15T11:32:46;11.20;99.90
47090;DHT22;32840;52.516;13.294;2022-11-15T11:36:08;11.30;99.90
47090;DHT22;32840;52.516;13.294;2022-11-15T11:48:57;11.40;99.90
47090;DHT22;32840;52.516;13.294;2022-11-15T11:51:50;11.40;99.90
47090;DHT22;32840;52.516;13.294;2022-11-15T12:01:04;11.50;99.90
47090;DHT22;32840;52.516;13.294;2022-11-15T12:04:02;11.60;99.90
47090;DHT22;32840;52.516;13.294;2022-11-15T12:06:54;11.70;99.90
47090;DHT22;32840;52.516;13.294;2022-11-15T12:09:44;11.70;99.90
47090;DHT22;32840;52.516;13.294;2022-11-15T12:15:47;11.70;99.90
47090;DHT22;32840;52.516;13.294;2022-11-15T12:18:32;11.70;99.90
47090;DHT22;32840;52.516;13.294;2022-11-15T12:21:35;11.80;99.90
47090;DHT22;32840;52.516;13.294;2022-11-15T12:24:50;11.70;99.90
47090;DHT22;32840;52.516;13.294;2022-11-15T12:27:42;11.70;99.90
47090;DHT22;32840;52.516;13.294;2022-11-15T12:30:54;11.80;99.90
47090;DHT22;32840;52.516;13.294;2022-11-15T12:33:42;11.90;99.90
47090;DHT22;32840;52.516;13.294;2022-11-15T12:36:39;11.90;99.90
47090;DHT22;32840;52.516;13.294;2022-11-15T12:43:40;11.90;99.90
47090;DHT22;32840;52.516;13.294;2022-11-15T12:52:08;12.00;99.90
47090;DHT22;32840;52.516;13.294;2022-11-15T12:54:58;12.00;99.90
47090;DHT22;32840;52.516;13.294;2022-11-15T12:57:43;12.00;99.90
47090;DHT22;32840;52.516;13.294;2022-11-15T13:03:19;12.10;99.90
47090;DHT22;32840;52.516;13.294;2022-11-15T13:06:06;12.10;99.90
47090;DHT22;32840;52.516;13.294;2022-11-15T13:08:51;12.10;99.90
47090;DHT22;32840;52.516;13.294;2022-11-15T13:11:48;12.10;99.90
47090;DHT22;32840;52.516;13.294;2022-11-15T13:14:43;12.10;99.90
47090;DHT22;32840;52.516;13.294;2022-11-15T13:17:37;12.10;99.90
47090;DHT22;32840;52.516;13.294;2022-11-15T13:20:31;12.10;99.90
47090;DHT22;32840;52.516;13.294;2022-11-15T13:23:16;12.20;99.90
47090;DHT22;32840;52.516;13.294;2022-11-15T13:26:13;12.10;99.90
47090;DHT22;32840;52.516;13.294;2022-11-15T13:28:58;12.10;99.90
47090;DHT22;32840;52.516;13.294;2022-11-15T13:31:46;12.10;99.90
47090;DHT22;32840;52.516;13.294;2022-11-15T13:34:32;12.10;99.90
47090;DHT22;32840;52.516;13.294;2022-11-15T13:37:40;12.10;99.90
47090;DHT22;32840;52.516;13.294;2022-11-15T13:40:28;12.00;99.90
47090;DHT22;32840;52.516;13.294;2022-11-15T13:51:52;12.20;99.90
47090;DHT22;32840;52.516;13.294;2022-11-15T13:55:25;12.20;99.90
47090;DHT22;32840;52.516;13.294;2022-11-15T13:58:03;12.10;99.90
47090;DHT22;32840;52.516;13.294;2022-11-15T14:01:00;12.10;99.90
47090;DHT22;32840;52.516;13.294;2022-11-15T14:03:57;12.10;99.90
47090;DHT22;32840;52.516;13.294;2022-11-15T14:06:56;12.10;99.90
47090;DHT22;32840;52.516;13.294;2022-11-15T14:09:42;12.10;99.90
47090;DHT22;32840;52.516;13.294;2022-11-15T14:12:34;12.10;99.90
47090;DHT22;32840;52.516;13.294;2022-11-15T14:15:25;12.00;99.90
47090;DHT22;32840;52.516;13.294;2022-11-15T14:18:51;12.00;99.90
47090;DHT22;32840;52.516;13.294;2022-11-15T14:21:37;12.00;99.90
47090;DHT22;32840;52.516;13.294;2022-11-15T14:24:22;12.00;99.90
47090;DHT22;32840;52.516;13.294;2022-11-15T14:27:17;12.10;99.90
47090;DHT22;32840;52.516;13.294;2022-11-15T14:30:03;12.00;99.90
47090;DHT22;32840;52.516;13.294;2022-11-15T14:32:50;12.10;99.90
47090;DHT22;32840;52.516;13.294;2022-11-15T14:35:38;12.10;99.90
47090;DHT22;32840;52.516;13.294;2022-11-15T14:38:24;12.10;99.90
47090;DHT22;32840;52.516;13.294;2022-11-15T14:41:24;12.00;99.90
47090;DHT22;32840;52.516;13.294;2022-11-15T14:44:11;12.00;99.90
47090;DHT22;32840;52.516;13.294;2022-11-15T14:46:56;12.00;99.90
47090;DHT22;32840;52.516;13.294;2022-11-15T14:49:41;12.00;99.90
47090;DHT22;32840;52.516;13.294;2022-11-15T14:52:31;11.90;99.90
47090;DHT22;32840;52.516;13.294;2022-11-15T14:55:24;11.90;99.90
47090;DHT22;32840;52.516;13.294;2022-11-15T14:58:10;11.90;99.90
47090;DHT22;32840;52.516;13.294;2022-11-15T15:00:55;11.80;99.90
47090;DHT22;32840;52.516;13.294;2022-11-15T15:03:40;11.80;99.90
47090;DHT22;32840;52.516;13.294;2022-11-15T15:06:25;11.80;99.90
47090;DHT22;32840;52.516;13.294;2022-11-15T15:09:10;11.80;99.90
47090;DHT22;32840;52.516;13.294;2022-11-15T15:11:59;11.80;99.90
47090;DHT22;32840;52.516;13.294;2022-11-15T15:14:48;11.70;99.90
47090;DHT22;32840;52.516;13.294;2022-11-15T15:17:33;11.70;99.90
47090;DHT22;32840;52.516;13.294;2022-11-15T15:20:18;11.70;99.90
47090;DHT22;32840;52.516;13.294;2022-11-15T15:23:03;11.60;99.90
47090;DHT22;32840;52.516;13.294;2022-11-15T15:25:48;11.50;99.90
47090;DHT22;32840;52.516;13.294;2022-11-15T15:28:33;11.60;99.90
47090;DHT22;32840;52.516;13.294;2022-11-15T15:31:19;11.60;99.90
47090;DHT22;32840;52.516;13.294;2022-11-15T15:34:04;11.50;99.90
47090;DHT22;32840;52.516;13.294;2022-11-15T15:36:49;11.60;99.90
47090;DHT22;32840;52.516;13.294;2022-11-15T15:39:34;11.60;99.90
47090;DHT22;32840;52.516;13.294;2022-11-15T15:42:20;11.60;99.90
47090;DHT22;32840;52.516;13.294;2022-11-15T15:45:05;11.60;99.90
47090;DHT22;32840;52.516;13.294;2022-11-15T15:47:50;11.50;99.90
47090;DHT22;32840;52.516;13.294;2022-11-15T15:50:36;11.50;99.90
47090;DHT22;32840;52.516;13.294;2022-11-15T15:53:21;11.50;99.90
47090;DHT22;32840;52.516;13.294;2022-11-15T15:56:06;11.50;99.90
47090;DHT22;32840;52.516;13.294;2022-11-15T15:58:52;11.50;99.90
47090;DHT22;32840;52.516;13.294;2022-11-15T16:01:37;11.40;99.90
47090;DHT22;32840;52.516;13.294;2022-11-15T16:04:22;11.50;99.90
47090;DHT22;32840;52.516;13.294;2022-11-15T16:07:17;11.40;99.90
47090;DHT22;32840;52.516;13.294;2022-11-15T16:10:16;11.40;99.90
47090;DHT22;32840;52.516;13.294;2022-11-15T16:13:01;11.40;99.90
47090;DHT22;32840;52.516;13.294;2022-11-15T16:15:50;11.40;99.90
47090;DHT22;32840;52.516;13.294;2022-11-15T16:18:36;11.30;99.90
47090;DHT22;32840;52.516;13.294;2022-11-15T16:21:21;11.30;99.90
47090;DHT22;32840;52.516;13.294;2022-11-15T16:24:06;11.30;99.90
47090;DHT22;32840;52.516;13.294;2022-11-15T16:26:51;11.30;99.90
47090;DHT22;32840;52.516;13.294;2022-11-15T16:29:36;11.30;99.90
47090;DHT22;32840;52.516;13.294;2022-11-15T16:32:21;11.30;99.90
47090;DHT22;32840;52.516;13.294;2022-11-15T16:35:11;11.30;99.90
47090;DHT22;32840;52.516;13.294;2022-11-15T16:37:57;11.20;99.90
47090;DHT22;32840;52.516;13.294;2022-11-15T16:40:42;11.20;99.90
47090;DHT22;32840;52.516;13.294;2022-11-15T16:43:27;11.20;99.90
47090;DHT22;32840;52.516;13.294;2022-11-15T16:46:18;11.20;99.90
47090;DHT22;32840;52.516;13.294;2022-11-15T16:49:04;11.10;99.90
47090;DHT22;32840;52.516;13.294;2022-11-15T16:51:49;11.20;99.90
47090;DHT22;32840;52.516;13.294;2022-11-15T16:54:34;11.10;99.90
47090;DHT22;32840;52.516;13.294;2022-11-15T16:57:19;11.10;99.90
47090;DHT22;32840;52.516;13.294;2022-11-15T17:00:04;11.10;99.90
47090;DHT22;32840;52.516;13.294;2022-11-15T17:02:50;11.10;99.90
47090;DHT22;32840;52.516;13.294;2022-11-15T17:05:35;11.00;99.90
47090;DHT22;32840;52.516;13.294;2022-11-15T17:08:20;11.00;99.90
47090;DHT22;32840;52.516;13.294;2022-11-15T17:11:08;11.00;99.90
47090;DHT22;32840;52.516;13.294;2022-11-15T17:13:57;10.90;99.90
47090;DHT22;32840;52.516;13.294;2022-11-15T17:16:42;10.90;99.90
47090;DHT22;32840;52.516;13.294;2022-11-15T17:19:27;10.90;99.90
47090;DHT22;32840;52.516;13.294;2022-11-15T17:22:12;10.90;99.90
47090;DHT22;32840;52.516;13.294;2022-11-15T17:24:57;10.80;99.90
47090;DHT22;32840;52.516;13.294;2022-11-15T17:27:42;10.80;99.90
47090;DHT22;32840;52.516;13.294;2022-11-15T17:30:27;10.80;99.90
47090;DHT22;32840;52.516;13.294;2022-11-15T17:33:12;10.80;99.90
47090;DHT22;32840;52.516;13.294;2022-11-15T17:35:59;10.70;99.90
47090;DHT22;32840;52.516;13.294;2022-11-15T17:38:45;10.70;99.90
47090;DHT22;32840;52.516;13.294;2022-11-15T17:41:33;10.70;99.90
47090;DHT22;32840;52.516;13.294;2022-11-15T17:44:18;10.70;99.90
47090;DHT22;32840;52.516;13.294;2022-11-15T17:47:03;10.60;99.90
47090;DHT22;32840;52.516;13.294;2022-11-15T17:49:48;10.60;99.90
47090;DHT22;32840;52.516;13.294;2022-11-15T17:52:33;10.60;99.90
47090;DHT22;32840;52.516;13.294;2022-11-15T17:55:18;10.60;99.90
47090;DHT22;32840;52.516;13.294;2022-11-15T17:58:03;10.60;99.90
47090;DHT22;32840;52.516;13.294;2022-11-15T18:00:48;10.50;99.90
47090;DHT22;32840;52.516;13.294;2022-11-15T18:03:36;10.50;99.90
47090;DHT22;32840;52.516;13.294;2022-11-15T18:06:23;10.40;99.90
47090;DHT22;32840;52.516;13.294;2022-11-15T18:09:08;10.40;99.90
47090;DHT22;32840;52.516;13.294;2022-11-15T18:11:53;10.30;99.90
47090;DHT22;32840;52.516;13.294;2022-11-15T18:14:38;10.40;99.90
47090;DHT22;32840;52.516;13.294;2022-11-15T18:17:23;10.30;99.90
47090;DHT22;32840;52.516;13.294;2022-11-15T18:20:08;10.20;99.90
47090;DHT22;32840;52.516;13.294;2022-11-15T18:22:53;10.20;99.90
47090;DHT22;32840;52.516;13.294;2022-11-15T18:25:38;10.20;99.90
47090;DHT22;32840;52.516;13.294;2022-11-15T18:28:34;10.10;99.90
47090;DHT22;32840;52.516;13.294;2022-11-15T18:31:24;10.10;99.90
47090;DHT22;32840;52.516;13.294;2022-11-15T18:34:10;10.00;99.90
47090;DHT22;32840;52.516;13.294;2022-11-15T18:36:54;10.00;99.90
47090;DHT22;32840;52.516;13.294;2022-11-15T18:39:39;9.90;99.90
47090;DHT22;32840;52.516;13.294;2022-11-15T18:42:24;9.90;99.90
47090;DHT22;32840;52.516;13.294;2022-11-15T18:45:09;9.90;99.90
47090;DHT22;32840;52.516;13.294;2022-11-15T18:47:54;9.90;99.90
47090;DHT22;32840;52.516;13.294;2022-11-15T18:50:40;9.90;99.90
47090;DHT22;32840;52.516;13.294;2022-11-15T18:53:25;9.90;99.90
47090;DHT22;32840;52.516;13.294;2022-11-15T18:56:14;9.90;99.90
47090;DHT22;32840;52.516;13.294;2022-11-15T18:59:00;9.90;99.90
47090;DHT22;32840;52.516;13.294;2022-11-15T19:01:46;9.90;99.90
47090;DHT22;32840;52.516;13.294;2022-11-15T19:04:31;9.90;99.90
47090;DHT22;32840;52.516;13.294;2022-11-15T19:07:16;9.80;99.90
47090;DHT22;32840;52.516;13.294;2022-11-15T19:10:01;9.90;99.90